Latest Weather Observations for Maryborough

IDQ60801

Issued at 1:05 pm EST Friday 18 April 2014 (issued every 30 minutes, with the page automatically refreshed every 10 minutes)

About weather observations | Map of weather stations | Latest weather observations for QLD | Other Formats
Station Details ID: 040126 Name: MARYBOROUGH Lat: -25.52 Lon: 152.72 Height: 10.28 m
Data from the previous 72 hours. | See also: Recent months at Maryborough
Date/Time
EST
Temp
°C
App
Temp
°C
Dew
Point
Rel
Hum
%
Delta-T
°C
Wind Press
QNH
hPa
Press
MSL
hPa
Rain
since 9 am
mm
Dir
 
Spd
km/h
Gust
km/h
Spd
kts
Gust
kts
18/01:00pm 27.1 25.5 10.3 35 9.4 WSW 9 19 5 10 1014.1 - 0.0
18/12:30pm 27.1 24.5 10.7 35 9.2 W 15 20 8 11 1014.6 - 0.0
18/12:00pm 27.1 24.7 9.9 34 9.6 W 13 20 7 11 1014.9 1014.8 0.0
18/11:30am 26.6 25.9 14.4 47 7.3 WSW 11 19 6 10 1015.4 - 0.0
18/11:00am 26.3 25.3 14.7 48 7.0 W 13 19 7 10 1015.9 - 0.0
18/10:30am 25.3 25.7 18.2 64 4.5 WSW 13 17 7 9 1016.4 - 0.0
18/10:00am 24.2 25.4 18.2 69 3.8 WSW 9 15 5 8 1016.7 - 0.0
18/09:30am 23.4 24.5 18.1 72 3.3 SW 9 13 5 7 1017.0 - 0.0
18/09:00am 22.4 23.9 17.5 74 3.0 SSW 6 11 3 6 1017.1 1017.0 0.2
18/08:30am 21.2 22.3 17.0 77 2.6 S 7 11 4 6 1017.0 - 0.2
18/08:00am 20.1 21.5 17.3 84 1.7 ESE 6 7 3 4 1016.8 - 0.2
18/07:30am 18.6 19.8 16.8 89 1.1 ESE 6 7 3 4 1016.9 - 0.2
18/07:00am 17.3 19.0 16.2 93 0.7 ESE 2 6 1 3 1016.8 - 0.2
18/06:30am 16.4 16.9 15.6 95 0.5 ESE 7 7 4 4 1016.6 - 0.2
18/06:00am 16.2 17.9 15.1 93 0.6 ESE 0 0 0 0 1016.4 1016.3 0.0
18/05:30am 17.1 18.0 16.1 94 0.6 ESE 6 7 3 4 1016.4 - 0.0
18/05:00am 17.2 17.9 16.2 94 0.6 ESE 7 9 4 5 1016.2 - 0.0
18/04:30am 17.3 18.2 16.0 92 0.8 ESE 6 7 3 4 1016.0 - 0.0
18/04:00am 17.8 18.9 16.7 93 0.7 ESE 6 7 3 4 1016.1 - 0.0
18/03:30am 17.8 18.8 16.3 91 0.9 ESE 6 7 3 4 1015.9 - 0.0
18/03:00am 18.3 19.6 17.0 92 0.8 ESE 6 7 3 4 1016.1 1016.0 0.0
18/02:30am 18.3 19.4 16.6 90 1.0 ESE 6 7 3 4 1016.3 - 0.0
18/02:00am 18.8 20.3 17.6 93 0.7 ESE 6 9 3 5 1016.4 - 0.0
18/01:30am 18.1 19.1 16.8 92 0.8 ESE 7 9 4 5 1016.5 - 0.0
18/01:00am 18.7 19.9 17.4 92 0.8 ESE 7 7 4 4 1016.8 - 0.0
18/12:48am 18.8 21.1 17.8 94 0.6 ESE 2 7 1 4 1016.9 - 0.0
18/12:30am 18.7 21.5 17.9 95 0.5 CALM 0 0 0 0 1017.0 - 0.0
18/12:27am 18.8 21.6 18.0 95 0.5 CALM 0 0 0 0 1017.0 - 0.0
18/12:00am 18.9 21.6 17.7 93 0.7 ESE 0 0 0 0 1017.1 1017.0 0.0
 
Date/Time
EST
Temp
°C
App
Temp
°C
Dew
Point
Rel
Hum
%
Delta-T
°C
Wind Press
QNH
hPa
Press
MSL
hPa
Rain
since 9 am
mm
Dir
 
Spd
km/h
Gust
km/h
Spd
kts
Gust
kts
17/11:45pm 19.0 21.1 18.0 94 0.6 ESE 4 7 2 4 1017.2 - 0.0
17/11:30pm 18.7 21.3 17.5 93 0.7 CALM 0 7 0 4 1017.4 - 0.0
17/11:29pm 18.7 21.3 17.4 92 0.8 CALM 0 6 0 3 1017.4 - 0.0
17/11:20pm 18.9 21.5 17.6 92 0.8 CALM 0 0 0 0 1017.3 - 0.0
17/11:00pm 19.0 21.7 17.8 93 0.7 CALM 0 0 0 0 1017.5 - 0.0
17/10:48pm 19.1 21.7 17.6 91 0.9 CALM 0 0 0 0 1017.4 - 0.0
17/10:30pm 19.8 22.8 18.5 92 0.8 CALM 0 0 0 0 1017.5 - 0.0
17/10:00pm 20.0 23.3 19.0 94 0.6 CALM 0 0 0 0 1017.7 - 0.0
17/09:30pm 19.2 21.9 17.7 91 0.9 CALM 0 0 0 0 1017.6 - 0.0
17/09:00pm 19.1 21.7 17.4 90 1.0 CALM 0 0 0 0 1017.5 1017.4 0.0
17/08:30pm 19.0 21.4 17.0 88 1.2 CALM 0 0 0 0 1017.3 - 0.0
17/08:00pm 19.7 22.2 17.3 86 1.5 CALM 0 0 0 0 1017.0 - 0.0
17/07:30pm 19.8 20.6 17.2 85 1.6 ESE 9 13 5 7 1016.6 - 0.0
17/07:00pm 20.6 22.4 17.4 82 2.0 WSW 4 7 2 4 1016.3 - 0.0
17/06:30pm 22.2 23.6 17.8 76 2.7 N 7 13 4 7 1016.1 - 0.0
17/06:00pm 22.5 23.1 16.8 70 3.5 E 9 13 5 7 1015.7 1015.6 0.0
17/05:30pm 23.5 24.2 17.0 67 4.0 ENE 9 13 5 7 1015.3 - 0.0
17/05:00pm 24.2 24.1 17.0 64 4.4 ENE 13 19 7 10 1015.0 - 0.0
17/04:30pm 25.1 25.9 17.3 62 4.9 E 9 11 5 6 1014.6 - 0.0
17/04:00pm 25.0 25.2 16.7 60 5.1 NE 11 15 6 8 1014.4 - 0.0
17/03:30pm 25.3 24.6 16.4 57 5.5 NE 15 19 8 10 1014.2 - 0.0
17/03:00pm 26.6 26.7 14.4 47 7.3 SE 7 9 4 5 1014.1 1014.0 0.0
17/02:30pm 26.5 26.7 14.6 48 7.1 SSW 7 9 4 5 1014.2 - 0.0
17/02:00pm 26.7 26.2 14.8 48 7.2 SSW 11 15 6 8 1014.4 - 0.0
17/01:30pm 27.9 27.6 14.5 44 8.1 S 9 15 5 8 1014.7 - 0.0
17/01:00pm 28.2 27.9 15.5 46 7.8 S 11 24 6 13 1015.1 - 0.0
17/12:30pm 26.9 26.8 15.9 51 6.7 WSW 11 15 6 8 1015.7 - 0.0
17/12:00pm 26.7 26.5 15.7 51 6.7 SW 11 15 6 8 1016.3 1016.2 0.0
17/11:30am 26.2 26.1 15.9 53 6.3 WSW 11 17 6 9 1016.9 - 0.0
17/11:00am 25.8 26.4 15.8 54 6.1 WSW 7 15 4 8 1017.4 - 0.0
17/10:30am 25.4 25.5 15.4 54 6.0 SSW 9 15 5 8 1017.7 - 0.0
17/10:00am 24.7 25.1 16.4 60 5.1 S 9 11 5 6 1017.9 - 0.0
17/09:30am 24.4 25.2 17.4 65 4.4 S 9 15 5 8 1018.0 - 0.0
17/09:00am 22.9 23.5 16.7 68 3.8 SSW 9 13 5 7 1018.1 1018.0 0.0
17/08:30am 22.0 22.8 17.2 74 2.9 SSW 9 13 5 7 1018.1 - 0.0
17/08:00am 20.7 21.1 16.3 76 2.6 S 9 13 5 7 1018.0 - 0.0
17/07:30am 19.6 20.0 16.3 81 2.0 SSW 9 11 5 6 1017.8 - 0.0
17/07:00am 18.6 19.0 16.4 87 1.3 SSE 9 15 5 8 1017.5 - 0.0
17/06:30am 17.4 17.7 15.9 91 0.9 S 9 11 5 6 1017.2 - 0.0
17/06:00am 17.4 17.5 15.6 89 1.1 S 9 9 5 5 1016.9 1016.8 0.0
17/05:30am 17.7 18.3 15.7 88 1.2 SW 7 9 4 5 1016.6 - 0.0
17/05:00am 18.3 19.0 16.1 87 1.3 SW 7 7 4 4 1016.4 - 0.0
17/04:30am 18.5 19.6 16.5 88 1.2 SW 6 6 3 3 1016.2 - 0.0
17/04:00am 18.3 19.2 16.5 89 1.1 SW 7 9 4 5 1016.0 - 0.0
17/03:30am 17.7 18.5 16.4 92 0.8 SSW 7 9 4 5 1015.8 - 0.0
17/03:00am 17.7 19.7 16.0 90 1.0 CALM 0 0 0 0 1015.9 1015.8 0.0
17/02:30am 18.1 20.1 16.1 88 1.2 CALM 0 0 0 0 1015.9 - 0.0
17/02:00am 18.4 18.9 16.6 89 1.1 SSW 9 9 5 5 1015.9 - 0.0
17/01:30am 18.7 19.6 16.5 87 1.3 E 7 9 4 5 1016.1 - 0.0
17/01:00am 19.5 21.0 17.5 88 1.2 E 6 7 3 4 1016.5 - 0.0
17/12:30am 19.1 20.7 17.8 92 0.8 E 6 6 3 3 1016.5 - 0.0
17/12:00am 18.6 21.2 17.4 93 0.7 CALM 0 0 0 0 1016.5 1016.4 0.0
 
Date/Time
EST
Temp
°C
App
Temp
°C
Dew
Point
Rel
Hum
%
Delta-T
°C
Wind Press
QNH
hPa
Press
MSL
hPa
Rain
since 9 am
mm
Dir
 
Spd
km/h
Gust
km/h
Spd
kts
Gust
kts
16/11:30pm 18.3 19.7 16.5 89 1.1 E 4 7 2 4 1016.3 - 0.0
16/11:00pm 18.9 20.0 17.0 89 1.1 E 7 7 4 4 1016.2 - 0.0
16/10:30pm 18.9 20.2 17.2 90 1.0 E 6 9 3 5 1016.4 - 0.0
16/10:00pm 19.5 21.9 17.1 86 1.5 CALM 0 0 0 0 1016.4 - 0.0
16/09:30pm 20.3 22.1 17.5 84 1.7 E 4 6 2 3 1016.6 - 0.0
16/09:00pm 20.6 21.8 17.4 82 2.0 E 7 7 4 4 1016.4 1016.3 0.0
16/08:30pm 20.5 22.9 16.9 80 2.2 CALM 0 0 0 0 1016.1 - 0.0
16/08:00pm 21.0 23.1 17.2 79 2.3 E 2 6 1 3 1015.8 - 0.0
16/07:30pm 20.5 21.6 17.1 81 2.1 E 7 9 4 5 1015.5 - 0.0
16/07:00pm 21.9 23.3 16.4 71 3.3 E 4 6 2 3 1015.2 - 0.0
16/06:30pm 21.9 23.1 16.8 73 3.1 E 6 9 3 5 1014.9 - 0.0
16/06:00pm 22.2 22.9 16.0 68 3.7 E 7 11 4 6 1014.4 1014.3 0.0
16/05:30pm 22.4 22.1 15.5 65 4.1 ESE 11 15 6 8 1013.8 - 0.0
16/05:00pm 23.6 22.6 15.6 61 4.8 E 15 20 8 11 1013.2 - 0.0
16/04:30pm 24.6 22.7 15.2 55 5.6 ESE 19 26 10 14 1013.1 - 0.0
16/04:00pm 27.6 27.4 13.5 41 8.3 S 7 11 4 6 1012.7 - 0.0
16/03:30pm 27.8 26.8 13.3 40 8.6 S 11 17 6 9 1012.7 - 0.0
16/03:00pm 28.1 26.9 14.0 42 8.4 SSE 13 19 7 10 1012.8 1012.7 0.0
16/02:30pm 27.6 26.0 12.8 40 8.7 S 13 19 7 10 1013.1 - 0.0
16/02:00pm 27.6 26.0 13.9 43 8.2 S 15 24 8 13 1013.4 - 0.0
16/01:30pm 27.2 25.2 13.9 44 7.9 SW 17 24 9 13 1013.6 - 0.0
16/01:00pm 27.1 26.3 15.1 47 7.3 WSW 13 24 7 13 1014.0 - 0.0
16/12:30pm 26.3 24.7 12.7 43 7.9 SSW 13 19 7 10 1014.4 - 0.0
16/12:00pm 26.1 26.0 13.9 47 7.2 SE 7 13 4 7 1014.8 1014.7 0.0
16/11:30am 25.2 23.9 12.4 45 7.4 SSW 11 17 6 9 1015.3 - 0.0
16/11:00am 24.7 23.9 13.0 48 6.8 SW 9 13 5 7 1015.8 - 0.0
16/10:30am 24.7 24.1 13.6 50 6.5 SSE 9 17 5 9 1016.3 - 0.0
16/10:00am 24.0 22.6 13.5 52 6.1 SSW 13 19 7 10 1016.8 - 0.0
16/09:30am 23.1 22.0 14.4 58 5.1 S 13 17 7 9 1017.0 - 0.0
16/09:00am 22.2 21.0 14.1 60 4.7 S 13 17 7 9 1017.0 1016.9 0.2
16/08:30am 21.5 20.5 14.6 65 4.1 S 13 17 7 9 1016.9 - 0.2
16/08:00am 20.3 19.9 15.3 73 3.0 SSW 11 15 6 8 1016.7 - 0.2
16/07:30am 18.9 18.5 15.2 79 2.2 SW 11 15 6 8 1016.4 - 0.2
16/07:00am 17.4 17.7 15.0 86 1.4 SW 7 11 4 6 1016.1 - 0.2
16/06:30am 16.4 16.6 14.8 90 0.9 SW 7 7 4 4 1015.8 - 0.2
16/06:00am 15.8 16.0 14.2 90 0.9 SW 6 7 3 4 1015.3 1015.2 0.2
16/05:30am 16.1 15.8 14.5 90 0.9 SW 9 9 5 5 1015.0 - 0.2
16/05:00am 16.4 16.7 14.9 91 0.9 SSW 7 9 4 5 1014.9 - 0.2
16/04:30am 16.3 16.7 14.8 91 0.9 SSW 6 7 3 4 1014.7 - 0.2
16/04:00am 15.9 16.2 14.4 91 0.9 SSW 6 7 3 4 1014.6 - 0.2
16/03:30am 15.8 17.1 14.2 90 0.9 CALM 0 4 0 2 1014.6 - 0.2
16/03:00am 16.7 17.5 14.9 89 1.0 SSW 4 6 2 3 1014.7 1014.6 0.2
16/02:30am 17.1 17.4 15.1 88 1.2 SSW 7 9 4 5 1014.6 - 0.2
16/02:00am 16.7 17.0 14.5 87 1.3 S 6 9 3 5 1014.8 - 0.2
16/01:30am 17.5 17.8 15.1 86 1.4 S 7 9 4 5 1015.1 - 0.2
16/01:00am 17.4 17.8 15.2 87 1.3 S 7 9 4 5 1015.4 - 0.2
16/12:30am 17.7 17.3 15.3 86 1.4 S 11 13 6 7 1015.5 - 0.2
16/12:00am 17.9 17.5 15.3 85 1.5 S 11 15 6 8 1015.5 1015.4 0.2
 
Date/Time
EST
Temp
°C
App
Temp
°C
Dew
Point
Rel
Hum
%
Delta-T
°C
Wind Press
QNH
hPa
Press
MSL
hPa
Rain
since 9 am
mm
Dir
 
Spd
km/h
Gust
km/h
Spd
kts
Gust
kts
15/11:30pm 18.0 17.3 15.4 85 1.5 S 13 17 7 9 1015.5 - 0.2
15/11:00pm 18.7 17.8 15.8 83 1.7 SSW 15 19 8 10 1015.7 - 0.2
15/10:30pm 18.3 18.2 15.9 86 1.4 S 11 13 6 7 1015.7 - 0.2
15/10:00pm 18.3 18.5 15.7 85 1.5 S 9 13 5 7 1015.5 - 0.2
15/09:30pm 18.7 19.0 15.9 84 1.7 S 9 11 5 6 1015.6 - 0.2
15/09:00pm 19.0 19.6 15.9 82 1.8 SSE 7 7 4 4 1015.4 1015.3 0.2
15/08:30pm 19.4 20.0 15.9 80 2.1 SSE 7 9 4 5 1015.3 - 0.2
15/08:00pm 19.8 20.4 15.9 78 2.3 SE 7 11 4 6 1015.3 - 0.2
15/07:30pm 20.3 20.9 15.7 75 2.7 SSE 7 9 4 5 1015.2 - 0.2
15/07:00pm 20.7 20.9 15.7 73 3.0 SSE 9 15 5 8 1014.9 - 0.2
15/06:30pm 21.2 20.5 15.5 70 3.4 SSE 13 19 7 10 1014.6 - 0.2
15/06:00pm 21.7 21.2 15.8 69 3.5 SE 13 17 7 9 1014.3 1014.2 0.2
15/05:30pm 22.4 21.4 15.7 66 4.0 SE 15 22 8 12 1013.9 - 0.2
15/05:00pm 23.6 22.0 15.1 59 5.1 SE 17 22 9 12 1013.5 - 0.2
15/04:30pm 24.3 22.4 15.2 57 5.5 SSE 19 26 10 14 1013.2 - 0.2
15/04:00pm 25.0 23.1 15.3 55 5.8 SSE 19 28 10 15 1013.0 - 0.2
15/03:30pm 25.1 22.6 15.1 53 6.0 SSE 22 32 12 17 1012.8 - 0.2
15/03:00pm 25.2 23.5 15.8 56 5.7 SE 19 26 10 14 1012.8 1012.7 0.2
15/02:30pm 25.4 23.2 16.0 56 5.7 SSE 22 32 12 17 1012.8 - 0.2
15/02:00pm 24.8 21.6 16.2 58 5.3 ESE 28 37 15 20 1012.6 - 0.2
15/01:30pm 26.3 24.7 16.5 54 6.0 SSE 20 30 11 16 1012.7 - 0.2

Other Formats:

Comma delimited format used in spreadsheet applications
http://www.bom.gov.au/fwo/IDQ60801/IDQ60801.94567.axf

JavaScript Object Notation format (JSON) in row-major order
http://www.bom.gov.au/fwo/IDQ60801/IDQ60801.94567.json